sensor_id;sensor_type;location;lat;lon;timestamp;P1;durP1;ratioP1;P2;durP2;ratioP2
23745;SDS011;12053;48.878;9.632;2023-09-30T00:01:27;6.55;;;3.40;;
23745;SDS011;12053;48.878;9.632;2023-09-30T00:03:54;8.57;;;3.42;;
23745;SDS011;12053;48.878;9.632;2023-09-30T00:06:22;7.38;;;3.38;;
23745;SDS011;12053;48.878;9.632;2023-09-30T00:08:49;5.38;;;3.17;;
23745;SDS011;12053;48.878;9.632;2023-09-30T00:11:16;6.78;;;3.10;;
23745;SDS011;12053;48.878;9.632;2023-09-30T00:13:44;6.93;;;2.95;;
23745;SDS011;12053;48.878;9.632;2023-09-30T00:16:12;5.75;;;2.97;;
23745;SDS011;12053;48.878;9.632;2023-09-30T00:18:39;8.90;;;3.00;;
23745;SDS011;12053;48.878;9.632;2023-09-30T00:21:07;5.97;;;2.80;;
23745;SDS011;12053;48.878;9.632;2023-09-30T00:23:35;5.85;;;3.20;;
23745;SDS011;12053;48.878;9.632;2023-09-30T00:26:02;5.63;;;3.20;;
23745;SDS011;12053;48.878;9.632;2023-09-30T00:28:29;5.78;;;3.42;;
23745;SDS011;12053;48.878;9.632;2023-09-30T00:30:56;5.25;;;2.60;;
23745;SDS011;12053;48.878;9.632;2023-09-30T00:33:24;5.38;;;3.00;;
23745;SDS011;12053;48.878;9.632;2023-09-30T00:35:51;6.15;;;3.00;;
23745;SDS011;12053;48.878;9.632;2023-09-30T00:38:19;5.82;;;3.88;;
23745;SDS011;12053;48.878;9.632;2023-09-30T00:40:47;7.32;;;3.17;;
23745;SDS011;12053;48.878;9.632;2023-09-30T00:43:20;4.82;;;3.10;;
23745;SDS011;12053;48.878;9.632;2023-09-30T00:45:48;5.45;;;3.20;;
23745;SDS011;12053;48.878;9.632;2023-09-30T00:48:15;4.72;;;3.08;;
23745;SDS011;12053;48.878;9.632;2023-09-30T00:50:43;8.95;;;3.40;;
23745;SDS011;12053;48.878;9.632;2023-09-30T00:53:10;5.75;;;3.55;;
23745;SDS011;12053;48.878;9.632;2023-09-30T00:55:38;5.45;;;3.55;;
23745;SDS011;12053;48.878;9.632;2023-09-30T00:58:05;6.63;;;3.35;;
23745;SDS011;12053;48.878;9.632;2023-09-30T01:00:33;7.50;;;3.58;;
23745;SDS011;12053;48.878;9.632;2023-09-30T01:03:00;6.93;;;3.50;;
23745;SDS011;12053;48.878;9.632;2023-09-30T01:05:30;5.13;;;3.28;;
23745;SDS011;12053;48.878;9.632;2023-09-30T01:07:58;8.23;;;3.33;;
23745;SDS011;12053;48.878;9.632;2023-09-30T01:10:29;5.78;;;3.08;;
23745;SDS011;12053;48.878;9.632;2023-09-30T01:12:56;5.47;;;3.15;;
23745;SDS011;12053;48.878;9.632;2023-09-30T01:15:23;5.65;;;4.00;;
23745;SDS011;12053;48.878;9.632;2023-09-30T01:17:51;5.45;;;3.53;;
23745;SDS011;12053;48.878;9.632;2023-09-30T01:20:18;9.45;;;4.22;;
23745;SDS011;12053;48.878;9.632;2023-09-30T01:22:48;7.47;;;3.83;;
23745;SDS011;12053;48.878;9.632;2023-09-30T01:25:15;7.70;;;4.63;;
23745;SDS011;12053;48.878;9.632;2023-09-30T01:27:43;7.72;;;4.45;;
23745;SDS011;12053;48.878;9.632;2023-09-30T01:30:10;6.90;;;4.00;;
23745;SDS011;12053;48.878;9.632;2023-09-30T01:32:37;7.57;;;4.03;;
23745;SDS011;12053;48.878;9.632;2023-09-30T01:35:05;8.50;;;4.75;;
23745;SDS011;12053;48.878;9.632;2023-09-30T01:37:32;9.50;;;4.60;;
23745;SDS011;12053;48.878;9.632;2023-09-30T01:39:59;7.72;;;4.50;;
23745;SDS011;12053;48.878;9.632;2023-09-30T01:42:26;9.90;;;5.35;;
23745;SDS011;12053;48.878;9.632;2023-09-30T01:44:54;8.18;;;4.68;;
23745;SDS011;12053;48.878;9.632;2023-09-30T01:47:22;8.18;;;5.03;;
23745;SDS011;12053;48.878;9.632;2023-09-30T01:49:50;8.27;;;4.63;;
23745;SDS011;12053;48.878;9.632;2023-09-30T01:52:17;6.30;;;4.65;;
23745;SDS011;12053;48.878;9.632;2023-09-30T01:54:44;7.35;;;5.13;;
23745;SDS011;12053;48.878;9.632;2023-09-30T01:57:11;11.07;;;5.95;;
23745;SDS011;12053;48.878;9.632;2023-09-30T01:59:39;7.70;;;5.50;;
23745;SDS011;12053;48.878;9.632;2023-09-30T02:02:06;13.82;;;7.65;;
23745;SDS011;12053;48.878;9.632;2023-09-30T02:04:34;12.23;;;7.28;;
23745;SDS011;12053;48.878;9.632;2023-09-30T02:07:01;11.50;;;7.07;;
23745;SDS011;12053;48.878;9.632;2023-09-30T02:09:28;11.02;;;6.93;;
23745;SDS011;12053;48.878;9.632;2023-09-30T02:11:56;14.48;;;7.57;;
23745;SDS011;12053;48.878;9.632;2023-09-30T02:14:23;13.65;;;7.30;;
23745;SDS011;12053;48.878;9.632;2023-09-30T02:16:51;14.45;;;7.90;;
23745;SDS011;12053;48.878;9.632;2023-09-30T02:19:18;12.23;;;7.18;;
23745;SDS011;12053;48.878;9.632;2023-09-30T02:21:46;13.82;;;7.65;;
23745;SDS011;12053;48.878;9.632;2023-09-30T02:24:13;11.95;;;7.18;;
23745;SDS011;12053;48.878;9.632;2023-09-30T02:26:41;10.18;;;7.55;;
23745;SDS011;12053;48.878;9.632;2023-09-30T02:29:09;11.52;;;7.38;;
23745;SDS011;12053;48.878;9.632;2023-09-30T02:31:36;10.82;;;7.00;;
23745;SDS011;12053;48.878;9.632;2023-09-30T02:34:04;10.82;;;7.65;;
23745;SDS011;12053;48.878;9.632;2023-09-30T02:36:31;8.90;;;6.97;;
23745;SDS011;12053;48.878;9.632;2023-09-30T02:38:58;11.07;;;7.18;;
23745;SDS011;12053;48.878;9.632;2023-09-30T02:41:27;11.73;;;6.57;;
23745;SDS011;12053;48.878;9.632;2023-09-30T02:43:55;9.50;;;7.00;;
23745;SDS011;12053;48.878;9.632;2023-09-30T02:46:22;11.82;;;7.60;;
23745;SDS011;12053;48.878;9.632;2023-09-30T02:48:50;14.88;;;8.18;;
23745;SDS011;12053;48.878;9.632;2023-09-30T02:51:19;15.63;;;8.50;;
23745;SDS011;12053;48.878;9.632;2023-09-30T02:53:46;12.73;;;8.52;;
23745;SDS011;12053;48.878;9.632;2023-09-30T02:56:16;11.85;;;8.13;;
23745;SDS011;12053;48.878;9.632;2023-09-30T02:58:45;12.82;;;8.20;;
23745;SDS011;12053;48.878;9.632;2023-09-30T03:01:16;12.63;;;8.32;;
23745;SDS011;12053;48.878;9.632;2023-09-30T03:03:43;11.25;;;8.13;;
23745;SDS011;12053;48.878;9.632;2023-09-30T03:06:11;10.73;;;7.95;;
23745;SDS011;12053;48.878;9.632;2023-09-30T03:08:38;11.65;;;8.07;;
23745;SDS011;12053;48.878;9.632;2023-09-30T03:11:07;10.85;;;7.63;;
23745;SDS011;12053;48.878;9.632;2023-09-30T03:13:34;13.38;;;7.70;;
23745;SDS011;12053;48.878;9.632;2023-09-30T03:16:01;10.88;;;7.53;;
23745;SDS011;12053;48.878;9.632;2023-09-30T03:18:28;13.45;;;8.20;;
23745;SDS011;12053;48.878;9.632;2023-09-30T03:21:00;11.55;;;7.75;;
23745;SDS011;12053;48.878;9.632;2023-09-30T03:23:28;14.00;;;8.82;;
23745;SDS011;12053;48.878;9.632;2023-09-30T03:25:57;14.32;;;8.32;;
23745;SDS011;12053;48.878;9.632;2023-09-30T03:28:24;13.52;;;8.35;;
23745;SDS011;12053;48.878;9.632;2023-09-30T03:30:51;14.23;;;8.75;;
23745;SDS011;12053;48.878;9.632;2023-09-30T03:33:19;11.70;;;7.60;;
23745;SDS011;12053;48.878;9.632;2023-09-30T03:35:46;12.70;;;8.57;;
23745;SDS011;12053;48.878;9.632;2023-09-30T03:38:13;14.75;;;9.02;;
23745;SDS011;12053;48.878;9.632;2023-09-30T03:40:41;15.30;;;9.07;;
23745;SDS011;12053;48.878;9.632;2023-09-30T03:43:16;12.65;;;8.07;;
23745;SDS011;12053;48.878;9.632;2023-09-30T03:45:43;17.38;;;8.95;;
23745;SDS011;12053;48.878;9.632;2023-09-30T03:48:11;16.50;;;9.32;;
23745;SDS011;12053;48.878;9.632;2023-09-30T03:50:38;15.85;;;9.02;;
23745;SDS011;12053;48.878;9.632;2023-09-30T03:53:05;13.95;;;8.82;;
23745;SDS011;12053;48.878;9.632;2023-09-30T03:55:36;15.40;;;8.32;;
23745;SDS011;12053;48.878;9.632;2023-09-30T03:58:03;14.68;;;8.98;;
23745;SDS011;12053;48.878;9.632;2023-09-30T04:00:30;12.95;;;8.40;;
23745;SDS011;12053;48.878;9.632;2023-09-30T04:02:58;17.80;;;8.50;;
23745;SDS011;12053;48.878;9.632;2023-09-30T04:05:25;11.80;;;8.27;;
23745;SDS011;12053;48.878;9.632;2023-09-30T04:07:56;14.68;;;9.13;;
23745;SDS011;12053;48.878;9.632;2023-09-30T04:10:23;15.10;;;8.48;;
23745;SDS011;12053;48.878;9.632;2023-09-30T04:12:51;12.23;;;8.35;;
23745;SDS011;12053;48.878;9.632;2023-09-30T04:15:19;15.07;;;8.63;;
23745;SDS011;12053;48.878;9.632;2023-09-30T04:17:47;17.73;;;9.70;;
23745;SDS011;12053;48.878;9.632;2023-09-30T04:20:14;15.60;;;8.82;;
23745;SDS011;12053;48.878;9.632;2023-09-30T04:22:49;18.17;;;10.82;;
23745;SDS011;12053;48.878;9.632;2023-09-30T04:25:17;17.27;;;11.20;;
23745;SDS011;12053;48.878;9.632;2023-09-30T04:27:44;14.65;;;10.00;;
23745;SDS011;12053;48.878;9.632;2023-09-30T04:30:15;13.13;;;9.55;;
23745;SDS011;12053;48.878;9.632;2023-09-30T04:32:43;16.65;;;11.23;;
23745;SDS011;12053;48.878;9.632;2023-09-30T04:35:11;15.57;;;11.70;;
23745;SDS011;12053;48.878;9.632;2023-09-30T04:37:38;22.13;;;11.88;;
23745;SDS011;12053;48.878;9.632;2023-09-30T04:40:05;21.55;;;11.63;;
23745;SDS011;12053;48.878;9.632;2023-09-30T04:42:34;17.35;;;10.98;;
23745;SDS011;12053;48.878;9.632;2023-09-30T04:45:03;23.80;;;11.90;;
23745;SDS011;12053;48.878;9.632;2023-09-30T04:47:33;18.55;;;12.02;;
23745;SDS011;12053;48.878;9.632;2023-09-30T04:50:01;16.75;;;11.57;;
23745;SDS011;12053;48.878;9.632;2023-09-30T04:52:36;16.00;;;11.55;;
23745;SDS011;12053;48.878;9.632;2023-09-30T04:55:04;15.98;;;12.00;;
23745;SDS011;12053;48.878;9.632;2023-09-30T04:57:32;17.75;;;11.68;;
23745;SDS011;12053;48.878;9.632;2023-09-30T04:59:59;19.15;;;11.73;;
23745;SDS011;12053;48.878;9.632;2023-09-30T05:02:27;16.30;;;11.77;;
23745;SDS011;12053;48.878;9.632;2023-09-30T05:04:54;19.33;;;10.70;;
23745;SDS011;12053;48.878;9.632;2023-09-30T05:07:21;13.07;;;10.57;;
23745;SDS011;12053;48.878;9.632;2023-09-30T05:09:49;18.00;;;10.70;;
23745;SDS011;12053;48.878;9.632;2023-09-30T05:12:16;15.48;;;10.55;;
23745;SDS011;12053;48.878;9.632;2023-09-30T05:14:43;15.57;;;10.70;;
23745;SDS011;12053;48.878;9.632;2023-09-30T05:17:11;16.75;;;10.15;;
23745;SDS011;12053;48.878;9.632;2023-09-30T05:19:39;14.27;;;9.65;;
23745;SDS011;12053;48.878;9.632;2023-09-30T05:22:06;12.82;;;8.93;;
23745;SDS011;12053;48.878;9.632;2023-09-30T05:24:33;18.48;;;11.13;;
23745;SDS011;12053;48.878;9.632;2023-09-30T05:27:01;17.33;;;10.02;;
23745;SDS011;12053;48.878;9.632;2023-09-30T05:29:29;20.02;;;10.07;;
23745;SDS011;12053;48.878;9.632;2023-09-30T05:31:59;14.20;;;9.38;;
23745;SDS011;12053;48.878;9.632;2023-09-30T05:34:26;15.25;;;9.63;;
23745;SDS011;12053;48.878;9.632;2023-09-30T05:36:54;15.23;;;10.00;;
23745;SDS011;12053;48.878;9.632;2023-09-30T05:39:21;16.55;;;9.98;;
23745;SDS011;12053;48.878;9.632;2023-09-30T05:41:48;17.85;;;9.73;;
23745;SDS011;12053;48.878;9.632;2023-09-30T05:44:15;12.90;;;9.90;;
23745;SDS011;12053;48.878;9.632;2023-09-30T05:46:42;14.98;;;8.88;;
23745;SDS011;12053;48.878;9.632;2023-09-30T05:49:11;20.88;;;11.27;;
23745;SDS011;12053;48.878;9.632;2023-09-30T05:51:40;16.85;;;9.73;;
23745;SDS011;12053;48.878;9.632;2023-09-30T05:54:07;16.55;;;9.98;;
23745;SDS011;12053;48.878;9.632;2023-09-30T05:56:38;17.30;;;10.18;;
23745;SDS011;12053;48.878;9.632;2023-09-30T05:59:08;13.70;;;9.32;;
23745;SDS011;12053;48.878;9.632;2023-09-30T06:01:36;13.23;;;9.95;;
23745;SDS011;12053;48.878;9.632;2023-09-30T06:04:04;17.70;;;10.13;;
23745;SDS011;12053;48.878;9.632;2023-09-30T06:06:31;14.05;;;9.57;;
23745;SDS011;12053;48.878;9.632;2023-09-30T06:08:59;13.27;;;9.85;;
23745;SDS011;12053;48.878;9.632;2023-09-30T06:11:26;14.40;;;10.13;;
23745;SDS011;12053;48.878;9.632;2023-09-30T06:13:56;14.32;;;10.15;;
23745;SDS011;12053;48.878;9.632;2023-09-30T06:16:25;16.75;;;10.05;;
23745;SDS011;12053;48.878;9.632;2023-09-30T06:18:53;17.40;;;10.13;;
23745;SDS011;12053;48.878;9.632;2023-09-30T06:21:21;18.80;;;10.75;;
23745;SDS011;12053;48.878;9.632;2023-09-30T06:23:48;19.70;;;10.65;;
23745;SDS011;12053;48.878;9.632;2023-09-30T06:26:17;15.68;;;10.10;;
23745;SDS011;12053;48.878;9.632;2023-09-30T06:28:44;15.88;;;9.32;;
23745;SDS011;12053;48.878;9.632;2023-09-30T06:31:11;18.70;;;9.63;;
23745;SDS011;12053;48.878;9.632;2023-09-30T06:33:39;16.13;;;9.65;;
23745;SDS011;12053;48.878;9.632;2023-09-30T06:36:10;16.30;;;9.85;;
23745;SDS011;12053;48.878;9.632;2023-09-30T06:38:37;17.45;;;10.50;;
23745;SDS011;12053;48.878;9.632;2023-09-30T06:41:04;14.82;;;9.68;;
23745;SDS011;12053;48.878;9.632;2023-09-30T06:43:32;15.27;;;9.82;;
23745;SDS011;12053;48.878;9.632;2023-09-30T06:46:07;15.10;;;10.40;;
23745;SDS011;12053;48.878;9.632;2023-09-30T06:48:39;12.27;;;9.77;;
23745;SDS011;12053;48.878;9.632;2023-09-30T06:51:12;16.90;;;9.02;;
23745;SDS011;12053;48.878;9.632;2023-09-30T06:53:41;13.87;;;9.13;;
23745;SDS011;12053;48.878;9.632;2023-09-30T06:56:08;11.52;;;8.45;;
23745;SDS011;12053;48.878;9.632;2023-09-30T06:58:35;16.05;;;8.85;;
23745;SDS011;12053;48.878;9.632;2023-09-30T07:01:02;12.57;;;8.15;;
23745;SDS011;12053;48.878;9.632;2023-09-30T07:03:29;13.98;;;8.43;;
23745;SDS011;12053;48.878;9.632;2023-09-30T07:05:59;15.50;;;9.32;;
23745;SDS011;12053;48.878;9.632;2023-09-30T07:08:27;12.07;;;8.60;;
23745;SDS011;12053;48.878;9.632;2023-09-30T07:10:57;15.65;;;8.55;;
23745;SDS011;12053;48.878;9.632;2023-09-30T07:13:24;13.27;;;7.20;;
23745;SDS011;12053;48.878;9.632;2023-09-30T07:15:51;16.15;;;8.38;;
23745;SDS011;12053;48.878;9.632;2023-09-30T07:18:19;12.20;;;7.35;;
23745;SDS011;12053;48.878;9.632;2023-09-30T07:20:46;12.35;;;8.40;;
23745;SDS011;12053;48.878;9.632;2023-09-30T07:23:13;16.63;;;8.40;;
23745;SDS011;12053;48.878;9.632;2023-09-30T07:25:45;15.13;;;7.30;;
23745;SDS011;12053;48.878;9.632;2023-09-30T07:28:13;11.70;;;7.43;;
23745;SDS011;12053;48.878;9.632;2023-09-30T07:30:40;14.65;;;7.80;;
23745;SDS011;12053;48.878;9.632;2023-09-30T07:33:08;13.52;;;8.15;;
23745;SDS011;12053;48.878;9.632;2023-09-30T07:35:35;14.57;;;6.38;;
23745;SDS011;12053;48.878;9.632;2023-09-30T07:38:03;10.40;;;6.55;;
23745;SDS011;12053;48.878;9.632;2023-09-30T07:40:30;11.55;;;6.50;;
23745;SDS011;12053;48.878;9.632;2023-09-30T07:42:58;12.95;;;6.95;;
23745;SDS011;12053;48.878;9.632;2023-09-30T07:45:26;13.77;;;6.57;;
23745;SDS011;12053;48.878;9.632;2023-09-30T07:47:54;11.35;;;6.57;;
23745;SDS011;12053;48.878;9.632;2023-09-30T07:50:21;15.80;;;6.60;;
23745;SDS011;12053;48.878;9.632;2023-09-30T07:52:49;11.35;;;6.53;;
23745;SDS011;12053;48.878;9.632;2023-09-30T07:55:16;13.40;;;6.75;;
23745;SDS011;12053;48.878;9.632;2023-09-30T07:57:43;9.23;;;6.07;;
23745;SDS011;12053;48.878;9.632;2023-09-30T08:00:12;10.55;;;5.57;;
23745;SDS011;12053;48.878;9.632;2023-09-30T08:02:44;8.95;;;6.25;;
23745;SDS011;12053;48.878;9.632;2023-09-30T08:05:11;10.32;;;5.82;;
23745;SDS011;12053;48.878;9.632;2023-09-30T08:07:39;13.02;;;6.93;;
23745;SDS011;12053;48.878;9.632;2023-09-30T08:10:06;12.93;;;6.55;;
23745;SDS011;12053;48.878;9.632;2023-09-30T08:12:39;10.18;;;6.35;;
23745;SDS011;12053;48.878;9.632;2023-09-30T08:15:07;10.43;;;6.50;;
23745;SDS011;12053;48.878;9.632;2023-09-30T08:17:38;11.43;;;6.32;;
23745;SDS011;12053;48.878;9.632;2023-09-30T08:20:05;13.98;;;7.35;;
23745;SDS011;12053;48.878;9.632;2023-09-30T08:22:33;11.98;;;6.57;;
23745;SDS011;12053;48.878;9.632;2023-09-30T08:25:00;12.05;;;6.10;;
23745;SDS011;12053;48.878;9.632;2023-09-30T08:27:27;16.65;;;7.10;;
23745;SDS011;12053;48.878;9.632;2023-09-30T08:29:54;12.05;;;5.60;;
23745;SDS011;12053;48.878;9.632;2023-09-30T08:32:21;12.30;;;6.07;;
23745;SDS011;12053;48.878;9.632;2023-09-30T08:34:48;9.68;;;5.53;;
23745;SDS011;12053;48.878;9.632;2023-09-30T08:37:15;9.85;;;5.70;;
23745;SDS011;12053;48.878;9.632;2023-09-30T08:39:43;8.45;;;5.25;;
23745;SDS011;12053;48.878;9.632;2023-09-30T08:42:10;10.55;;;5.65;;
23745;SDS011;12053;48.878;9.632;2023-09-30T08:44:38;8.52;;;4.75;;
23745;SDS011;12053;48.878;9.632;2023-09-30T08:47:06;8.57;;;5.45;;
23745;SDS011;12053;48.878;9.632;2023-09-30T08:49:40;10.40;;;5.35;;
23745;SDS011;12053;48.878;9.632;2023-09-30T08:52:09;12.23;;;5.50;;
23745;SDS011;12053;48.878;9.632;2023-09-30T08:54:36;8.27;;;5.28;;
23745;SDS011;12053;48.878;9.632;2023-09-30T08:57:05;9.77;;;5.43;;
23745;SDS011;12053;48.878;9.632;2023-09-30T08:59:34;9.23;;;5.90;;
23745;SDS011;12053;48.878;9.632;2023-09-30T09:02:03;9.30;;;6.05;;
23745;SDS011;12053;48.878;9.632;2023-09-30T09:04:35;11.70;;;5.82;;
23745;SDS011;12053;48.878;9.632;2023-09-30T09:07:03;9.23;;;5.38;;
23745;SDS011;12053;48.878;9.632;2023-09-30T09:09:30;8.02;;;5.25;;
23745;SDS011;12053;48.878;9.632;2023-09-30T09:11:58;12.20;;;5.28;;
23745;SDS011;12053;48.878;9.632;2023-09-30T09:14:38;8.55;;;4.75;;
23745;SDS011;12053;48.878;9.632;2023-09-30T09:17:06;8.05;;;4.55;;
23745;SDS011;12053;48.878;9.632;2023-09-30T09:19:34;6.60;;;4.40;;
23745;SDS011;12053;48.878;9.632;2023-09-30T09:22:01;9.07;;;5.00;;
23745;SDS011;12053;48.878;9.632;2023-09-30T09:24:31;8.05;;;4.40;;
23745;SDS011;12053;48.878;9.632;2023-09-30T09:27:05;13.55;;;4.70;;
23745;SDS011;12053;48.878;9.632;2023-09-30T09:29:33;12.98;;;4.85;;
23745;SDS011;12053;48.878;9.632;2023-09-30T09:32:07;9.65;;;4.03;;
23745;SDS011;12053;48.878;9.632;2023-09-30T09:34:35;8.18;;;3.97;;
23745;SDS011;12053;48.878;9.632;2023-09-30T09:37:15;8.65;;;4.45;;
23745;SDS011;12053;48.878;9.632;2023-09-30T09:39:55;7.75;;;4.72;;
23745;SDS011;12053;48.878;9.632;2023-09-30T09:42:33;7.95;;;4.82;;
23745;SDS011;12053;48.878;9.632;2023-09-30T09:45:03;8.25;;;4.60;;
23745;SDS011;12053;48.878;9.632;2023-09-30T09:47:32;7.55;;;4.50;;
23745;SDS011;12053;48.878;9.632;2023-09-30T09:50:02;6.82;;;3.72;;
23745;SDS011;12053;48.878;9.632;2023-09-30T09:52:29;9.38;;;4.78;;
23745;SDS011;12053;48.878;9.632;2023-09-30T09:54:57;8.27;;;4.28;;
23745;SDS011;12053;48.878;9.632;2023-09-30T09:57:24;7.10;;;4.22;;
23745;SDS011;12053;48.878;9.632;2023-09-30T09:59:53;9.73;;;5.45;;
23745;SDS011;12053;48.878;9.632;2023-09-30T10:02:25;6.85;;;4.25;;
23745;SDS011;12053;48.878;9.632;2023-09-30T10:04:54;7.78;;;4.07;;
23745;SDS011;12053;48.878;9.632;2023-09-30T10:07:25;7.78;;;4.43;;
23745;SDS011;12053;48.878;9.632;2023-09-30T10:09:52;7.18;;;4.15;;
23745;SDS011;12053;48.878;9.632;2023-09-30T10:12:20;8.02;;;4.10;;
23745;SDS011;12053;48.878;9.632;2023-09-30T10:14:48;7.03;;;4.03;;
23745;SDS011;12053;48.878;9.632;2023-09-30T10:17:15;7.63;;;4.55;;
23745;SDS011;12053;48.878;9.632;2023-09-30T10:20:03;7.22;;;4.50;;
23745;SDS011;12053;48.878;9.632;2023-09-30T10:22:31;7.43;;;4.50;;
23745;SDS011;12053;48.878;9.632;2023-09-30T10:24:58;9.77;;;4.65;;
23745;SDS011;12053;48.878;9.632;2023-09-30T10:35:21;10.63;;;4.13;;
23745;SDS011;12053;48.878;9.632;2023-09-30T10:37:48;9.50;;;4.53;;
23745;SDS011;12053;48.878;9.632;2023-09-30T10:40:28;8.25;;;4.82;;
23745;SDS011;12053;48.878;9.632;2023-09-30T10:42:55;7.57;;;4.20;;
23745;SDS011;12053;48.878;9.632;2023-09-30T10:50:53;7.68;;;4.38;;
23745;SDS011;12053;48.878;9.632;2023-09-30T10:53:25;10.25;;;4.85;;
23745;SDS011;12053;48.878;9.632;2023-09-30T10:55:54;11.50;;;4.85;;
23745;SDS011;12053;48.878;9.632;2023-09-30T10:58:21;9.20;;;4.55;;
23745;SDS011;12053;48.878;9.632;2023-09-30T11:00:52;10.85;;;5.13;;
23745;SDS011;12053;48.878;9.632;2023-09-30T11:03:21;8.57;;;4.82;;
23745;SDS011;12053;48.878;9.632;2023-09-30T11:05:50;11.02;;;5.10;;
23745;SDS011;12053;48.878;9.632;2023-09-30T11:08:37;8.65;;;4.60;;
23745;SDS011;12053;48.878;9.632;2023-09-30T11:11:04;9.07;;;4.97;;
23745;SDS011;12053;48.878;9.632;2023-09-30T11:13:32;12.35;;;5.82;;
23745;SDS011;12053;48.878;9.632;2023-09-30T11:16:03;9.77;;;4.90;;
23745;SDS011;12053;48.878;9.632;2023-09-30T11:18:31;11.15;;;5.60;;
23745;SDS011;12053;48.878;9.632;2023-09-30T11:21:06;12.13;;;5.32;;
23745;SDS011;12053;48.878;9.632;2023-09-30T11:23:33;8.43;;;4.78;;
23745;SDS011;12053;48.878;9.632;2023-09-30T11:26:01;7.63;;;4.45;;
23745;SDS011;12053;48.878;9.632;2023-09-30T11:28:35;8.25;;;4.60;;
23745;SDS011;12053;48.878;9.632;2023-09-30T11:31:03;11.45;;;5.57;;
23745;SDS011;12053;48.878;9.632;2023-09-30T11:33:34;13.75;;;6.88;;
23745;SDS011;12053;48.878;9.632;2023-09-30T11:36:14;12.98;;;6.55;;
23745;SDS011;12053;48.878;9.632;2023-09-30T11:38:45;13.63;;;6.40;;
23745;SDS011;12053;48.878;9.632;2023-09-30T11:41:14;11.65;;;6.00;;
23745;SDS011;12053;48.878;9.632;2023-09-30T11:43:57;9.45;;;5.38;;
23745;SDS011;12053;48.878;9.632;2023-09-30T11:46:26;10.82;;;5.40;;
23745;SDS011;12053;48.878;9.632;2023-09-30T11:48:58;10.20;;;5.05;;
23745;SDS011;12053;48.878;9.632;2023-09-30T11:51:27;10.95;;;6.28;;
23745;SDS011;12053;48.878;9.632;2023-09-30T11:53:55;9.93;;;5.43;;
23745;SDS011;12053;48.878;9.632;2023-09-30T11:56:23;11.63;;;6.03;;
23745;SDS011;12053;48.878;9.632;2023-09-30T11:58:55;10.77;;;5.43;;
23745;SDS011;12053;48.878;9.632;2023-09-30T12:01:23;13.10;;;6.90;;
23745;SDS011;12053;48.878;9.632;2023-09-30T12:03:51;10.05;;;4.93;;
23745;SDS011;12053;48.878;9.632;2023-09-30T12:06:24;10.60;;;5.75;;
23745;SDS011;12053;48.878;9.632;2023-09-30T12:08:51;10.85;;;4.80;;
23745;SDS011;12053;48.878;9.632;2023-09-30T12:11:18;12.73;;;6.22;;
23745;SDS011;12053;48.878;9.632;2023-09-30T12:13:46;11.50;;;5.90;;
23745;SDS011;12053;48.878;9.632;2023-09-30T12:16:15;10.30;;;5.90;;
23745;SDS011;12053;48.878;9.632;2023-09-30T12:18:43;10.38;;;5.47;;
23745;SDS011;12053;48.878;9.632;2023-09-30T12:21:10;11.65;;;6.03;;
23745;SDS011;12053;48.878;9.632;2023-09-30T12:23:40;11.65;;;6.03;;
23745;SDS011;12053;48.878;9.632;2023-09-30T12:26:08;13.63;;;6.25;;
23745;SDS011;12053;48.878;9.632;2023-09-30T12:31:07;12.07;;;5.55;;
23745;SDS011;12053;48.878;9.632;2023-09-30T12:33:37;10.90;;;5.90;;
23745;SDS011;12053;48.878;9.632;2023-09-30T12:36:04;11.32;;;5.55;;
23745;SDS011;12053;48.878;9.632;2023-09-30T12:38:31;12.68;;;5.68;;
23745;SDS011;12053;48.878;9.632;2023-09-30T12:40:58;12.15;;;6.20;;
23745;SDS011;12053;48.878;9.632;2023-09-30T12:43:26;12.10;;;6.28;;
23745;SDS011;12053;48.878;9.632;2023-09-30T12:45:53;11.73;;;6.20;;
23745;SDS011;12053;48.878;9.632;2023-09-30T12:48:21;10.82;;;6.18;;
23745;SDS011;12053;48.878;9.632;2023-09-30T12:50:48;11.68;;;5.90;;
23745;SDS011;12053;48.878;9.632;2023-09-30T12:53:15;10.13;;;5.47;;
23745;SDS011;12053;48.878;9.632;2023-09-30T12:55:43;8.90;;;5.13;;
23745;SDS011;12053;48.878;9.632;2023-09-30T12:58:10;11.43;;;6.20;;
23745;SDS011;12053;48.878;9.632;2023-09-30T13:00:38;60.78;;;10.93;;
23745;SDS011;12053;48.878;9.632;2023-09-30T13:03:05;19.00;;;6.43;;
23745;SDS011;12053;48.878;9.632;2023-09-30T13:05:34;149.38;;;16.30;;
23745;SDS011;12053;48.878;9.632;2023-09-30T13:08:01;14.20;;;6.22;;
23745;SDS011;12053;48.878;9.632;2023-09-30T13:10:28;12.07;;;5.88;;
23745;SDS011;12053;48.878;9.632;2023-09-30T13:12:56;11.05;;;6.25;;
23745;SDS011;12053;48.878;9.632;2023-09-30T13:15:24;11.70;;;5.88;;
23745;SDS011;12053;48.878;9.632;2023-09-30T13:17:52;16.13;;;5.88;;
23745;SDS011;12053;48.878;9.632;2023-09-30T13:20:20;32.63;;;7.53;;
23745;SDS011;12053;48.878;9.632;2023-09-30T13:22:47;11.95;;;5.55;;
23745;SDS011;12053;48.878;9.632;2023-09-30T13:25:15;10.02;;;5.53;;
23745;SDS011;12053;48.878;9.632;2023-09-30T13:27:42;18.65;;;6.40;;
23745;SDS011;12053;48.878;9.632;2023-09-30T13:30:09;73.28;;;10.65;;
23745;SDS011;12053;48.878;9.632;2023-09-30T13:32:37;10.68;;;6.03;;
23745;SDS011;12053;48.878;9.632;2023-09-30T13:35:04;11.15;;;6.03;;
23745;SDS011;12053;48.878;9.632;2023-09-30T13:37:32;12.02;;;5.50;;
23745;SDS011;12053;48.878;9.632;2023-09-30T13:40:00;14.88;;;6.40;;
23745;SDS011;12053;48.878;9.632;2023-09-30T13:42:28;10.00;;;5.82;;
23745;SDS011;12053;48.878;9.632;2023-09-30T13:44:55;13.90;;;6.50;;
23745;SDS011;12053;48.878;9.632;2023-09-30T13:47:25;10.45;;;5.95;;
23745;SDS011;12053;48.878;9.632;2023-09-30T13:49:52;12.13;;;6.30;;
23745;SDS011;12053;48.878;9.632;2023-09-30T13:52:21;11.52;;;5.88;;
23745;SDS011;12053;48.878;9.632;2023-09-30T13:54:48;13.07;;;5.93;;
23745;SDS011;12053;48.878;9.632;2023-09-30T13:57:15;11.60;;;5.82;;
23745;SDS011;12053;48.878;9.632;2023-09-30T13:59:43;11.32;;;6.07;;
23745;SDS011;12053;48.878;9.632;2023-09-30T14:02:10;12.80;;;6.35;;
23745;SDS011;12053;48.878;9.632;2023-09-30T14:04:37;11.77;;;6.15;;
23745;SDS011;12053;48.878;9.632;2023-09-30T14:07:04;11.13;;;6.10;;
23745;SDS011;12053;48.878;9.632;2023-09-30T14:09:32;14.05;;;6.65;;
23745;SDS011;12053;48.878;9.632;2023-09-30T14:12:02;13.43;;;6.40;;
23745;SDS011;12053;48.878;9.632;2023-09-30T14:14:31;13.45;;;6.65;;
23745;SDS011;12053;48.878;9.632;2023-09-30T14:16:59;13.43;;;6.72;;
23745;SDS011;12053;48.878;9.632;2023-09-30T14:19:33;12.02;;;6.75;;
23745;SDS011;12053;48.878;9.632;2023-09-30T14:22:01;12.73;;;6.28;;
23745;SDS011;12053;48.878;9.632;2023-09-30T14:24:30;12.18;;;5.75;;
23745;SDS011;12053;48.878;9.632;2023-09-30T14:27:00;13.48;;;6.07;;
23745;SDS011;12053;48.878;9.632;2023-09-30T14:29:27;10.55;;;5.68;;
23745;SDS011;12053;48.878;9.632;2023-09-30T14:31:54;11.25;;;5.63;;
23745;SDS011;12053;48.878;9.632;2023-09-30T14:34:23;12.27;;;5.30;;
23745;SDS011;12053;48.878;9.632;2023-09-30T14:36:50;11.93;;;5.55;;
23745;SDS011;12053;48.878;9.632;2023-09-30T14:39:18;12.10;;;5.45;;
23745;SDS011;12053;48.878;9.632;2023-09-30T14:41:45;10.85;;;5.40;;
23745;SDS011;12053;48.878;9.632;2023-09-30T14:44:13;10.63;;;4.85;;
23745;SDS011;12053;48.878;9.632;2023-09-30T14:46:40;9.50;;;5.60;;
23745;SDS011;12053;48.878;9.632;2023-09-30T14:49:07;10.90;;;5.65;;
23745;SDS011;12053;48.878;9.632;2023-09-30T14:51:35;11.98;;;5.32;;
23745;SDS011;12053;48.878;9.632;2023-09-30T14:54:02;14.32;;;6.30;;
23745;SDS011;12053;48.878;9.632;2023-09-30T14:56:30;11.20;;;5.63;;
23745;SDS011;12053;48.878;9.632;2023-09-30T14:58:57;10.63;;;5.80;;